sensor_id;sensor_type;location;lat;lon;timestamp;P1;durP1;ratioP1;P2;durP2;ratioP2
19599;SDS011;9947;57.722;12.012;2023-04-25T00:02:11;18.77;;;12.33;;
19599;SDS011;9947;57.722;12.012;2023-04-25T00:04:39;20.13;;;12.90;;
19599;SDS011;9947;57.722;12.012;2023-04-25T00:07:08;21.70;;;13.50;;
19599;SDS011;9947;57.722;12.012;2023-04-25T00:09:36;19.53;;;13.13;;
19599;SDS011;9947;57.722;12.012;2023-04-25T00:12:05;21.57;;;13.77;;
19599;SDS011;9947;57.722;12.012;2023-04-25T00:14:33;20.67;;;12.23;;
19599;SDS011;9947;57.722;12.012;2023-04-25T00:17:01;21.83;;;12.53;;
19599;SDS011;9947;57.722;12.012;2023-04-25T00:19:32;20.20;;;12.47;;
19599;SDS011;9947;57.722;12.012;2023-04-25T00:22:00;22.83;;;13.83;;
19599;SDS011;9947;57.722;12.012;2023-04-25T00:24:28;21.67;;;13.07;;
19599;SDS011;9947;57.722;12.012;2023-04-25T00:26:58;23.87;;;13.63;;
19599;SDS011;9947;57.722;12.012;2023-04-25T00:29:35;22.10;;;13.10;;
19599;SDS011;9947;57.722;12.012;2023-04-25T00:32:02;22.23;;;13.63;;
19599;SDS011;9947;57.722;12.012;2023-04-25T00:34:33;24.13;;;14.23;;
19599;SDS011;9947;57.722;12.012;2023-04-25T00:37:01;24.50;;;13.70;;
19599;SDS011;9947;57.722;12.012;2023-04-25T00:39:35;24.37;;;14.00;;
19599;SDS011;9947;57.722;12.012;2023-04-25T00:42:03;27.17;;;14.57;;
19599;SDS011;9947;57.722;12.012;2023-04-25T00:44:31;28.37;;;14.57;;
19599;SDS011;9947;57.722;12.012;2023-04-25T00:46:58;27.73;;;14.73;;
19599;SDS011;9947;57.722;12.012;2023-04-25T00:49:28;29.70;;;15.07;;
19599;SDS011;9947;57.722;12.012;2023-04-25T00:51:59;28.87;;;15.57;;
19599;SDS011;9947;57.722;12.012;2023-04-25T00:54:33;30.40;;;15.73;;
19599;SDS011;9947;57.722;12.012;2023-04-25T00:57:01;33.53;;;17.00;;
19599;SDS011;9947;57.722;12.012;2023-04-25T00:59:30;30.93;;;16.80;;
19599;SDS011;9947;57.722;12.012;2023-04-25T01:02:00;32.63;;;17.33;;
19599;SDS011;9947;57.722;12.012;2023-04-25T01:04:27;33.10;;;16.63;;
19599;SDS011;9947;57.722;12.012;2023-04-25T01:06:54;33.50;;;17.30;;
19599;SDS011;9947;57.722;12.012;2023-04-25T01:09:28;35.50;;;17.83;;
19599;SDS011;9947;57.722;12.012;2023-04-25T01:11:59;32.20;;;17.50;;
19599;SDS011;9947;57.722;12.012;2023-04-25T01:14:27;32.80;;;17.97;;
19599;SDS011;9947;57.722;12.012;2023-04-25T01:16:55;32.73;;;16.80;;
19599;SDS011;9947;57.722;12.012;2023-04-25T01:19:28;32.53;;;17.80;;
19599;SDS011;9947;57.722;12.012;2023-04-25T01:22:01;36.10;;;17.63;;
19599;SDS011;9947;57.722;12.012;2023-04-25T01:24:35;30.70;;;16.13;;
19599;SDS011;9947;57.722;12.012;2023-04-25T01:27:04;33.43;;;17.33;;
19599;SDS011;9947;57.722;12.012;2023-04-25T01:29:34;30.07;;;15.83;;
19599;SDS011;9947;57.722;12.012;2023-04-25T01:32:02;32.30;;;17.70;;
19599;SDS011;9947;57.722;12.012;2023-04-25T01:34:29;33.60;;;17.40;;
19599;SDS011;9947;57.722;12.012;2023-04-25T01:36:59;30.00;;;16.47;;
19599;SDS011;9947;57.722;12.012;2023-04-25T01:39:28;30.30;;;15.73;;
19599;SDS011;9947;57.722;12.012;2023-04-25T01:41:55;30.23;;;16.37;;
19599;SDS011;9947;57.722;12.012;2023-04-25T01:44:24;28.37;;;14.30;;
19599;SDS011;9947;57.722;12.012;2023-04-25T01:46:53;29.30;;;15.70;;
19599;SDS011;9947;57.722;12.012;2023-04-25T01:49:22;29.10;;;15.80;;
19599;SDS011;9947;57.722;12.012;2023-04-25T01:51:52;26.20;;;15.30;;
19599;SDS011;9947;57.722;12.012;2023-04-25T01:54:21;30.07;;;15.50;;
19599;SDS011;9947;57.722;12.012;2023-04-25T01:56:50;25.13;;;13.53;;
19599;SDS011;9947;57.722;12.012;2023-04-25T01:59:18;24.77;;;14.00;;
19599;SDS011;9947;57.722;12.012;2023-04-25T02:01:47;25.93;;;13.77;;
19599;SDS011;9947;57.722;12.012;2023-04-25T02:04:15;27.20;;;13.53;;
19599;SDS011;9947;57.722;12.012;2023-04-25T02:06:45;23.40;;;13.17;;
19599;SDS011;9947;57.722;12.012;2023-04-25T02:09:12;23.80;;;13.67;;
19599;SDS011;9947;57.722;12.012;2023-04-25T02:11:40;22.33;;;13.40;;
19599;SDS011;9947;57.722;12.012;2023-04-25T02:14:08;23.53;;;13.53;;
19599;SDS011;9947;57.722;12.012;2023-04-25T02:16:35;25.07;;;13.17;;
19599;SDS011;9947;57.722;12.012;2023-04-25T02:19:02;20.07;;;11.97;;
19599;SDS011;9947;57.722;12.012;2023-04-25T02:21:29;18.47;;;11.67;;
19599;SDS011;9947;57.722;12.012;2023-04-25T02:24:07;20.03;;;11.57;;
19599;SDS011;9947;57.722;12.012;2023-04-25T02:26:34;19.20;;;11.13;;
19599;SDS011;9947;57.722;12.012;2023-04-25T02:29:03;21.17;;;11.87;;
19599;SDS011;9947;57.722;12.012;2023-04-25T02:31:30;19.73;;;11.93;;
19599;SDS011;9947;57.722;12.012;2023-04-25T02:33:57;19.97;;;11.70;;
19599;SDS011;9947;57.722;12.012;2023-04-25T02:36:25;19.50;;;12.00;;
19599;SDS011;9947;57.722;12.012;2023-04-25T02:38:52;19.57;;;11.53;;
19599;SDS011;9947;57.722;12.012;2023-04-25T02:41:19;21.10;;;11.80;;
19599;SDS011;9947;57.722;12.012;2023-04-25T02:43:46;18.47;;;10.87;;
19599;SDS011;9947;57.722;12.012;2023-04-25T02:46:16;20.03;;;11.70;;
19599;SDS011;9947;57.722;12.012;2023-04-25T02:48:44;20.07;;;11.43;;
19599;SDS011;9947;57.722;12.012;2023-04-25T02:51:11;19.77;;;11.83;;
19599;SDS011;9947;57.722;12.012;2023-04-25T02:53:38;19.53;;;11.93;;
19599;SDS011;9947;57.722;12.012;2023-04-25T02:56:07;22.20;;;12.77;;
19599;SDS011;9947;57.722;12.012;2023-04-25T02:58:36;22.13;;;12.53;;
19599;SDS011;9947;57.722;12.012;2023-04-25T03:03:39;22.23;;;12.80;;
19599;SDS011;9947;57.722;12.012;2023-04-25T03:09:04;20.23;;;12.00;;
19599;SDS011;9947;57.722;12.012;2023-04-25T03:11:32;20.57;;;11.80;;
19599;SDS011;9947;57.722;12.012;2023-04-25T03:14:04;21.10;;;12.37;;
19599;SDS011;9947;57.722;12.012;2023-04-25T03:16:32;19.33;;;11.43;;
19599;SDS011;9947;57.722;12.012;2023-04-25T03:21:32;17.63;;;10.30;;
19599;SDS011;9947;57.722;12.012;2023-04-25T03:26:24;15.90;;;9.05;;
19599;SDS011;9947;57.722;12.012;2023-04-25T03:28:54;13.97;;;9.20;;
19599;SDS011;9947;57.722;12.012;2023-04-25T03:31:23;16.70;;;9.33;;
19599;SDS011;9947;57.722;12.012;2023-04-25T03:33:50;14.67;;;9.23;;
19599;SDS011;9947;57.722;12.012;2023-04-25T03:36:19;15.77;;;9.87;;
19599;SDS011;9947;57.722;12.012;2023-04-25T03:38:47;18.43;;;10.10;;
19599;SDS011;9947;57.722;12.012;2023-04-25T03:43:49;18.10;;;10.23;;
19599;SDS011;9947;57.722;12.012;2023-04-25T03:46:16;17.23;;;10.70;;
19599;SDS011;9947;57.722;12.012;2023-04-25T03:48:48;17.90;;;10.87;;
19599;SDS011;9947;57.722;12.012;2023-04-25T03:51:16;15.83;;;10.17;;
19599;SDS011;9947;57.722;12.012;2023-04-25T03:53:43;15.80;;;9.30;;
19599;SDS011;9947;57.722;12.012;2023-04-25T03:56:17;15.13;;;9.60;;
19599;SDS011;9947;57.722;12.012;2023-04-25T03:58:45;17.70;;;10.03;;
19599;SDS011;9947;57.722;12.012;2023-04-25T04:01:12;15.67;;;9.63;;
19599;SDS011;9947;57.722;12.012;2023-04-25T04:03:39;16.60;;;10.23;;
19599;SDS011;9947;57.722;12.012;2023-04-25T04:08:33;19.25;;;11.27;;
19599;SDS011;9947;57.722;12.012;2023-04-25T04:13:32;19.80;;;11.57;;
19599;SDS011;9947;57.722;12.012;2023-04-25T04:18:24;22.05;;;12.77;;
19599;SDS011;9947;57.722;12.012;2023-04-25T04:20:54;25.03;;;14.23;;
19599;SDS011;9947;57.722;12.012;2023-04-25T04:23:23;27.03;;;13.80;;
19599;SDS011;9947;57.722;12.012;2023-04-25T04:25:50;26.07;;;14.47;;
19599;SDS011;9947;57.722;12.012;2023-04-25T04:28:18;32.07;;;15.47;;
19599;SDS011;9947;57.722;12.012;2023-04-25T04:30:47;33.97;;;16.57;;
19599;SDS011;9947;57.722;12.012;2023-04-25T04:33:16;29.77;;;16.20;;
19599;SDS011;9947;57.722;12.012;2023-04-25T04:35:44;32.20;;;15.77;;
19599;SDS011;9947;57.722;12.012;2023-04-25T04:38:11;30.93;;;16.67;;
19599;SDS011;9947;57.722;12.012;2023-04-25T04:40:41;32.60;;;16.70;;
19599;SDS011;9947;57.722;12.012;2023-04-25T04:43:09;27.77;;;15.43;;
19599;SDS011;9947;57.722;12.012;2023-04-25T04:45:38;27.50;;;15.40;;
19599;SDS011;9947;57.722;12.012;2023-04-25T04:50:31;26.27;;;13.93;;
19599;SDS011;9947;57.722;12.012;2023-04-25T04:55:24;27.73;;;15.20;;
19599;SDS011;9947;57.722;12.012;2023-04-25T04:57:51;26.47;;;14.10;;
19599;SDS011;9947;57.722;12.012;2023-04-25T05:00:20;27.53;;;13.50;;
19599;SDS011;9947;57.722;12.012;2023-04-25T05:02:48;23.30;;;12.80;;
19599;SDS011;9947;57.722;12.012;2023-04-25T05:05:23;23.10;;;13.23;;
19599;SDS011;9947;57.722;12.012;2023-04-25T05:07:53;21.33;;;11.63;;
19599;SDS011;9947;57.722;12.012;2023-04-25T05:10:21;20.57;;;11.40;;
19599;SDS011;9947;57.722;12.012;2023-04-25T05:12:51;19.47;;;11.10;;
19599;SDS011;9947;57.722;12.012;2023-04-25T05:15:20;22.07;;;11.60;;
19599;SDS011;9947;57.722;12.012;2023-04-25T05:17:48;21.30;;;11.40;;
19599;SDS011;9947;57.722;12.012;2023-04-25T05:20:15;19.70;;;11.47;;
19599;SDS011;9947;57.722;12.012;2023-04-25T05:22:45;28.87;;;11.90;;
19599;SDS011;9947;57.722;12.012;2023-04-25T05:25:13;23.93;;;11.23;;
19599;SDS011;9947;57.722;12.012;2023-04-25T05:27:40;21.13;;;11.60;;
19599;SDS011;9947;57.722;12.012;2023-04-25T05:32:39;20.47;;;11.30;;
19599;SDS011;9947;57.722;12.012;2023-04-25T05:37:36;20.00;;;12.50;;
19599;SDS011;9947;57.722;12.012;2023-04-25T05:42:30;18.35;;;10.15;;
19599;SDS011;9947;57.722;12.012;2023-04-25T05:47:24;16.77;;;9.15;;
19599;SDS011;9947;57.722;12.012;2023-04-25T05:49:53;15.67;;;8.57;;
19599;SDS011;9947;57.722;12.012;2023-04-25T05:52:20;13.97;;;8.10;;
19599;SDS011;9947;57.722;12.012;2023-04-25T05:54:47;12.67;;;8.67;;
19599;SDS011;9947;57.722;12.012;2023-04-25T05:57:21;16.10;;;8.60;;
19599;SDS011;9947;57.722;12.012;2023-04-25T05:59:50;13.37;;;7.77;;
19599;SDS011;9947;57.722;12.012;2023-04-25T06:02:17;16.13;;;7.77;;
19599;SDS011;9947;57.722;12.012;2023-04-25T06:04:45;12.70;;;6.93;;
19599;SDS011;9947;57.722;12.012;2023-04-25T06:07:12;12.27;;;7.97;;
19599;SDS011;9947;57.722;12.012;2023-04-25T06:09:40;11.13;;;7.23;;
19599;SDS011;9947;57.722;12.012;2023-04-25T06:14:38;14.17;;;7.90;;
19599;SDS011;9947;57.722;12.012;2023-04-25T06:19:41;12.03;;;7.80;;
19599;SDS011;9947;57.722;12.012;2023-04-25T06:22:09;11.93;;;7.43;;
19599;SDS011;9947;57.722;12.012;2023-04-25T06:24:38;13.73;;;7.93;;
19599;SDS011;9947;57.722;12.012;2023-04-25T06:27:09;16.30;;;7.40;;
19599;SDS011;9947;57.722;12.012;2023-04-25T06:29:36;13.40;;;7.10;;
19599;SDS011;9947;57.722;12.012;2023-04-25T06:32:06;16.20;;;8.87;;
19599;SDS011;9947;57.722;12.012;2023-04-25T06:34:34;19.70;;;8.37;;
19599;SDS011;9947;57.722;12.012;2023-04-25T06:39:27;20.10;;;9.10;;
19599;SDS011;9947;57.722;12.012;2023-04-25T06:41:54;19.40;;;8.10;;
19599;SDS011;9947;57.722;12.012;2023-04-25T06:44:22;25.17;;;8.30;;
19599;SDS011;9947;57.722;12.012;2023-04-25T06:46:51;15.17;;;7.17;;
19599;SDS011;9947;57.722;12.012;2023-04-25T06:49:18;17.17;;;6.23;;
19599;SDS011;9947;57.722;12.012;2023-04-25T06:51:46;10.50;;;5.60;;
19599;SDS011;9947;57.722;12.012;2023-04-25T06:54:12;12.87;;;5.03;;
19599;SDS011;9947;57.722;12.012;2023-04-25T06:56:42;7.60;;;4.03;;
19599;SDS011;9947;57.722;12.012;2023-04-25T06:59:09;9.33;;;3.80;;
19599;SDS011;9947;57.722;12.012;2023-04-25T07:01:38;10.03;;;4.70;;
19599;SDS011;9947;57.722;12.012;2023-04-25T07:04:05;11.77;;;4.43;;
19599;SDS011;9947;57.722;12.012;2023-04-25T07:06:33;9.87;;;3.80;;
19599;SDS011;9947;57.722;12.012;2023-04-25T07:11:28;7.25;;;3.95;;
19599;SDS011;9947;57.722;12.012;2023-04-25T07:13:59;11.73;;;4.50;;
19599;SDS011;9947;57.722;12.012;2023-04-25T07:16:29;8.17;;;3.63;;
19599;SDS011;9947;57.722;12.012;2023-04-25T07:18:57;11.97;;;3.40;;
19599;SDS011;9947;57.722;12.012;2023-04-25T07:21:24;11.20;;;3.20;;
19599;SDS011;9947;57.722;12.012;2023-04-25T07:23:51;4.63;;;2.90;;
19599;SDS011;9947;57.722;12.012;2023-04-25T07:26:19;9.50;;;3.83;;
19599;SDS011;9947;57.722;12.012;2023-04-25T07:28:48;7.60;;;3.10;;
19599;SDS011;9947;57.722;12.012;2023-04-25T07:31:18;6.00;;;2.77;;
19599;SDS011;9947;57.722;12.012;2023-04-25T07:33:45;10.50;;;3.00;;
19599;SDS011;9947;57.722;12.012;2023-04-25T07:38:47;6.93;;;2.53;;
19599;SDS011;9947;57.722;12.012;2023-04-25T07:41:15;2.17;;;2.00;;
19599;SDS011;9947;57.722;12.012;2023-04-25T07:43:42;2.90;;;2.17;;
19599;SDS011;9947;57.722;12.012;2023-04-25T07:46:10;2.17;;;2.07;;
19599;SDS011;9947;57.722;12.012;2023-04-25T07:48:38;4.97;;;2.40;;
19599;SDS011;9947;57.722;12.012;2023-04-25T07:51:05;4.47;;;2.33;;
19599;SDS011;9947;57.722;12.012;2023-04-25T07:53:32;5.40;;;2.23;;
19599;SDS011;9947;57.722;12.012;2023-04-25T07:56:04;4.27;;;2.40;;
19599;SDS011;9947;57.722;12.012;2023-04-25T07:58:34;2.93;;;2.20;;
19599;SDS011;9947;57.722;12.012;2023-04-25T08:03:31;2.77;;;1.87;;
19599;SDS011;9947;57.722;12.012;2023-04-25T08:08:27;2.83;;;1.85;;
19599;SDS011;9947;57.722;12.012;2023-04-25T08:10:56;5.00;;;1.80;;
19599;SDS011;9947;57.722;12.012;2023-04-25T08:13:24;3.53;;;1.90;;
19599;SDS011;9947;57.722;12.012;2023-04-25T08:15:52;2.67;;;1.60;;
19599;SDS011;9947;57.722;12.012;2023-04-25T08:18:19;2.33;;;1.60;;
19599;SDS011;9947;57.722;12.012;2023-04-25T08:20:47;3.50;;;1.60;;
19599;SDS011;9947;57.722;12.012;2023-04-25T08:23:14;2.33;;;1.60;;
19599;SDS011;9947;57.722;12.012;2023-04-25T08:25:43;1.50;;;1.40;;
19599;SDS011;9947;57.722;12.012;2023-04-25T08:28:11;2.77;;;1.60;;
19599;SDS011;9947;57.722;12.012;2023-04-25T08:30:39;2.67;;;1.50;;
19599;SDS011;9947;57.722;12.012;2023-04-25T08:33:08;7.33;;;1.80;;
19599;SDS011;9947;57.722;12.012;2023-04-25T08:35:35;4.43;;;1.60;;
19599;SDS011;9947;57.722;12.012;2023-04-25T08:40:28;6.03;;;1.52;;
19599;SDS011;9947;57.722;12.012;2023-04-25T08:42:57;1.77;;;1.67;;
19599;SDS011;9947;57.722;12.012;2023-04-25T08:45:30;4.03;;;1.87;;
19599;SDS011;9947;57.722;12.012;2023-04-25T08:47:59;3.03;;;1.50;;
19599;SDS011;9947;57.722;12.012;2023-04-25T08:50:28;3.80;;;1.60;;
19599;SDS011;9947;57.722;12.012;2023-04-25T08:52:57;2.40;;;1.50;;
19599;SDS011;9947;57.722;12.012;2023-04-25T08:55:30;5.90;;;1.50;;
19599;SDS011;9947;57.722;12.012;2023-04-25T08:57:59;3.43;;;1.90;;
19599;SDS011;9947;57.722;12.012;2023-04-25T09:00:27;2.27;;;1.60;;
19599;SDS011;9947;57.722;12.012;2023-04-25T09:05:28;3.75;;;1.45;;
19599;SDS011;9947;57.722;12.012;2023-04-25T09:07:57;3.53;;;1.50;;
19599;SDS011;9947;57.722;12.012;2023-04-25T09:10:25;6.80;;;1.70;;
19599;SDS011;9947;57.722;12.012;2023-04-25T09:13:03;3.87;;;1.73;;
19599;SDS011;9947;57.722;12.012;2023-04-25T09:15:32;4.43;;;1.83;;
19599;SDS011;9947;57.722;12.012;2023-04-25T09:18:01;7.13;;;2.10;;
19599;SDS011;9947;57.722;12.012;2023-04-25T09:20:29;3.90;;;1.73;;
19599;SDS011;9947;57.722;12.012;2023-04-25T09:23:01;4.13;;;1.77;;
19599;SDS011;9947;57.722;12.012;2023-04-25T09:25:28;6.40;;;1.80;;
19599;SDS011;9947;57.722;12.012;2023-04-25T09:30:31;4.72;;;1.95;;
19599;SDS011;9947;57.722;12.012;2023-04-25T09:33:03;4.07;;;1.80;;
19599;SDS011;9947;57.722;12.012;2023-04-25T09:35:35;7.27;;;1.80;;
19599;SDS011;9947;57.722;12.012;2023-04-25T09:40:41;3.70;;;1.80;;
19599;SDS011;9947;57.722;12.012;2023-04-25T09:43:12;5.87;;;1.73;;
19599;SDS011;9947;57.722;12.012;2023-04-25T09:45:46;2.50;;;1.50;;
19599;SDS011;9947;57.722;12.012;2023-04-25T09:48:16;4.63;;;1.47;;
19599;SDS011;9947;57.722;12.012;2023-04-25T09:50:45;3.13;;;1.77;;
19599;SDS011;9947;57.722;12.012;2023-04-25T09:53:12;3.53;;;1.57;;
19599;SDS011;9947;57.722;12.012;2023-04-25T09:55:39;3.07;;;1.67;;
19599;SDS011;9947;57.722;12.012;2023-04-25T09:58:07;2.10;;;1.40;;
19599;SDS011;9947;57.722;12.012;2023-04-25T10:00:37;4.37;;;1.73;;
19599;SDS011;9947;57.722;12.012;2023-04-25T10:05:34;3.23;;;1.50;;
19599;SDS011;9947;57.722;12.012;2023-04-25T10:08:06;3.83;;;1.60;;
19599;SDS011;9947;57.722;12.012;2023-04-25T10:10:34;4.03;;;1.87;;
19599;SDS011;9947;57.722;12.012;2023-04-25T10:15:28;3.35;;;1.67;;
19599;SDS011;9947;57.722;12.012;2023-04-25T10:17:57;2.67;;;1.87;;
19599;SDS011;9947;57.722;12.012;2023-04-25T10:20:27;6.60;;;1.63;;
19599;SDS011;9947;57.722;12.012;2023-04-25T10:23:02;6.07;;;2.00;;
19599;SDS011;9947;57.722;12.012;2023-04-25T10:25:39;2.67;;;1.60;;
19599;SDS011;9947;57.722;12.012;2023-04-25T10:30:33;3.80;;;1.67;;
19599;SDS011;9947;57.722;12.012;2023-04-25T10:33:16;4.63;;;1.83;;
19599;SDS011;9947;57.722;12.012;2023-04-25T10:35:44;9.37;;;1.93;;
19599;SDS011;9947;57.722;12.012;2023-04-25T10:40:57;5.40;;;1.90;;
19599;SDS011;9947;57.722;12.012;2023-04-25T10:43:34;3.20;;;1.80;;
19599;SDS011;9947;57.722;12.012;2023-04-25T10:46:14;5.43;;;1.80;;
19599;SDS011;9947;57.722;12.012;2023-04-25T10:48:46;3.10;;;2.07;;
19599;SDS011;9947;57.722;12.012;2023-04-25T10:51:16;5.73;;;1.70;;
19599;SDS011;9947;57.722;12.012;2023-04-25T10:53:56;2.83;;;1.60;;
19599;SDS011;9947;57.722;12.012;2023-04-25T10:56:25;3.30;;;1.70;;
19599;SDS011;9947;57.722;12.012;2023-04-25T11:01:35;7.17;;;1.80;;
19599;SDS011;9947;57.722;12.012;2023-04-25T11:04:18;4.83;;;1.97;;
19599;SDS011;9947;57.722;12.012;2023-04-25T11:06:50;2.47;;;1.80;;
19599;SDS011;9947;57.722;12.012;2023-04-25T11:09:31;4.73;;;1.70;;
19599;SDS011;9947;57.722;12.012;2023-04-25T11:11:59;3.50;;;1.90;;
19599;SDS011;9947;57.722;12.012;2023-04-25T11:14:27;5.97;;;2.00;;
19599;SDS011;9947;57.722;12.012;2023-04-25T11:16:55;6.50;;;1.87;;
19599;SDS011;9947;57.722;12.012;2023-04-25T11:19:24;3.93;;;1.97;;
19599;SDS011;9947;57.722;12.012;2023-04-25T11:21:54;4.77;;;1.70;;
19599;SDS011;9947;57.722;12.012;2023-04-25T11:24:25;2.47;;;1.87;;
19599;SDS011;9947;57.722;12.012;2023-04-25T11:26:55;1.83;;;1.70;;
19599;SDS011;9947;57.722;12.012;2023-04-25T11:29:26;4.50;;;2.30;;
19599;SDS011;9947;57.722;12.012;2023-04-25T11:31:53;4.80;;;1.77;;
19599;SDS011;9947;57.722;12.012;2023-04-25T11:34:23;3.40;;;1.93;;
19599;SDS011;9947;57.722;12.012;2023-04-25T11:36:50;2.57;;;1.80;;
19599;SDS011;9947;57.722;12.012;2023-04-25T11:39:18;2.50;;;1.80;;
19599;SDS011;9947;57.722;12.012;2023-04-25T11:41:46;3.33;;;1.80;;
19599;SDS011;9947;57.722;12.012;2023-04-25T11:44:16;5.03;;;1.90;;
19599;SDS011;9947;57.722;12.012;2023-04-25T11:46:44;3.43;;;1.60;;
19599;SDS011;9947;57.722;12.012;2023-04-25T11:49:13;4.03;;;1.57;;
19599;SDS011;9947;57.722;12.012;2023-04-25T11:51:40;3.17;;;1.50;;
19599;SDS011;9947;57.722;12.012;2023-04-25T11:56:34;3.33;;;1.70;;
19599;SDS011;9947;57.722;12.012;2023-04-25T12:01:29;6.32;;;1.70;;
19599;SDS011;9947;57.722;12.012;2023-04-25T12:03:57;1.63;;;1.53;;
19599;SDS011;9947;57.722;12.012;2023-04-25T12:06:26;5.57;;;1.90;;
19599;SDS011;9947;57.722;12.012;2023-04-25T12:09:01;3.17;;;1.90;;
19599;SDS011;9947;57.722;12.012;2023-04-25T12:11:30;4.03;;;1.90;;
19599;SDS011;9947;57.722;12.012;2023-04-25T12:14:01;6.57;;;1.90;;
19599;SDS011;9947;57.722;12.012;2023-04-25T12:16:39;2.73;;;1.70;;
19599;SDS011;9947;57.722;12.012;2023-04-25T12:21:42;2.17;;;1.80;;
19599;SDS011;9947;57.722;12.012;2023-04-25T12:26:49;3.00;;;1.83;;
19599;SDS011;9947;57.722;12.012;2023-04-25T12:29:20;3.47;;;1.90;;
19599;SDS011;9947;57.722;12.012;2023-04-25T12:31:51;8.17;;;2.10;;
19599;SDS011;9947;57.722;12.012;2023-04-25T12:34:19;2.07;;;1.80;;
19599;SDS011;9947;57.722;12.012;2023-04-25T12:36:48;2.67;;;1.70;;
19599;SDS011;9947;57.722;12.012;2023-04-25T12:39:16;7.07;;;1.90;;
19599;SDS011;9947;57.722;12.012;2023-04-25T12:41:44;5.17;;;1.90;;
19599;SDS011;9947;57.722;12.012;2023-04-25T12:44:11;4.90;;;1.90;;
19599;SDS011;9947;57.722;12.012;2023-04-25T12:46:39;4.00;;;1.80;;
19599;SDS011;9947;57.722;12.012;2023-04-25T12:49:09;3.97;;;1.90;;
19599;SDS011;9947;57.722;12.012;2023-04-25T12:51:42;5.07;;;1.80;;
19599;SDS011;9947;57.722;12.012;2023-04-25T12:54:13;1.87;;;1.73;;
19599;SDS011;9947;57.722;12.012;2023-04-25T12:56:42;3.97;;;1.70;;
19599;SDS011;9947;57.722;12.012;2023-04-25T12:59:08;2.77;;;2.10;;
19599;SDS011;9947;57.722;12.012;2023-04-25T13:01:37;3.57;;;1.73;;
19599;SDS011;9947;57.722;12.012;2023-04-25T13:06:31;2.75;;;2.30;;
19599;SDS011;9947;57.722;12.012;2023-04-25T13:08:59;5.57;;;2.00;;
19599;SDS011;9947;57.722;12.012;2023-04-25T13:11:27;3.63;;;1.90;;
19599;SDS011;9947;57.722;12.012;2023-04-25T13:13:55;4.40;;;1.90;;
19599;SDS011;9947;57.722;12.012;2023-04-25T13:16:23;2.07;;;1.90;;
19599;SDS011;9947;57.722;12.012;2023-04-25T13:18:53;5.53;;;2.00;;
19599;SDS011;9947;57.722;12.012;2023-04-25T13:21:21;4.10;;;1.93;;
19599;SDS011;9947;57.722;12.012;2023-04-25T13:23:50;3.83;;;1.90;;
19599;SDS011;9947;57.722;12.012;2023-04-25T13:26:17;5.83;;;2.20;;
19599;SDS011;9947;57.722;12.012;2023-04-25T13:28:45;2.90;;;2.33;;
19599;SDS011;9947;57.722;12.012;2023-04-25T13:31:14;9.30;;;2.10;;
19599;SDS011;9947;57.722;12.012;2023-04-25T13:33:41;4.07;;;1.90;;
19599;SDS011;9947;57.722;12.012;2023-04-25T13:38:33;1.75;;;1.65;;
19599;SDS011;9947;57.722;12.012;2023-04-25T13:41:02;2.83;;;1.97;;
19599;SDS011;9947;57.722;12.012;2023-04-25T13:43:29;4.07;;;2.57;;
19599;SDS011;9947;57.722;12.012;2023-04-25T13:45:56;3.17;;;1.93;;
19599;SDS011;9947;57.722;12.012;2023-04-25T13:48:24;4.63;;;1.80;;
19599;SDS011;9947;57.722;12.012;2023-04-25T13:50:53;1.80;;;1.70;;
19599;SDS011;9947;57.722;12.012;2023-04-25T13:56:03;2.37;;;1.90;;
19599;SDS011;9947;57.722;12.012;2023-04-25T13:58:30;2.70;;;1.77;;
19599;SDS011;9947;57.722;12.012;2023-04-25T14:00:58;5.93;;;1.77;;
19599;SDS011;9947;57.722;12.012;2023-04-25T14:03:26;2.00;;;1.70;;
19599;SDS011;9947;57.722;12.012;2023-04-25T14:05:53;3.90;;;1.73;;
19599;SDS011;9947;57.722;12.012;2023-04-25T14:08:23;2.70;;;1.80;;
19599;SDS011;9947;57.722;12.012;2023-04-25T14:10:51;2.97;;;1.57;;
19599;SDS011;9947;57.722;12.012;2023-04-25T14:13:22;1.60;;;1.50;;
19599;SDS011;9947;57.722;12.012;2023-04-25T14:15:51;1.50;;;1.40;;
19599;SDS011;9947;57.722;12.012;2023-04-25T14:18:18;3.53;;;1.50;;
19599;SDS011;9947;57.722;12.012;2023-04-25T14:20:45;5.07;;;1.67;;
19599;SDS011;9947;57.722;12.012;2023-04-25T14:25:42;1.80;;;1.50;;
19599;SDS011;9947;57.722;12.012;2023-04-25T14:30:40;5.33;;;1.83;;
19599;SDS011;9947;57.722;12.012;2023-04-25T14:33:07;3.77;;;1.83;;
19599;SDS011;9947;57.722;12.012;2023-04-25T14:35:35;5.53;;;1.93;;
19599;SDS011;9947;57.722;12.012;2023-04-25T14:38:02;5.37;;;1.80;;
19599;SDS011;9947;57.722;12.012;2023-04-25T14:40:28;3.80;;;1.70;;
19599;SDS011;9947;57.722;12.012;2023-04-25T14:42:56;1.70;;;1.60;;
19599;SDS011;9947;57.722;12.012;2023-04-25T14:45:25;3.00;;;1.70;;
19599;SDS011;9947;57.722;12.012;2023-04-25T14:47:54;2.20;;;1.93;;
19599;SDS011;9947;57.722;12.012;2023-04-25T14:50:22;6.40;;;2.40;;
19599;SDS011;9947;57.722;12.012;2023-04-25T14:52:49;6.83;;;1.70;;
19599;SDS011;9947;57.722;12.012;2023-04-25T14:55:18;3.07;;;1.87;;
19599;SDS011;9947;57.722;12.012;2023-04-25T14:57:45;5.80;;;1.80;;
19599;SDS011;9947;57.722;12.012;2023-04-25T15:00:13;6.70;;;1.90;;
19599;SDS011;9947;57.722;12.012;2023-04-25T15:02:42;2.87;;;1.70;;
19599;SDS011;9947;57.722;12.012;2023-04-25T15:05:12;2.77;;;1.83;;
19599;SDS011;9947;57.722;12.012;2023-04-25T15:07:39;15.03;;;2.10;;
19599;SDS011;9947;57.722;12.012;2023-04-25T15:10:06;3.80;;;1.83;;
19599;SDS011;9947;57.722;12.012;2023-04-25T15:12:39;2.73;;;1.40;;
19599;SDS011;9947;57.722;12.012;2023-04-25T15:15:12;1.50;;;1.40;;
19599;SDS011;9947;57.722;12.012;2023-04-25T15:17:41;36.87;;;13.97;;
19599;SDS011;9947;57.722;12.012;2023-04-25T15:20:09;39.67;;;14.63;;
19599;SDS011;9947;57.722;12.012;2023-04-25T15:22:41;3.37;;;2.00;;
19599;SDS011;9947;57.722;12.012;2023-04-25T15:27:36;7.47;;;1.80;;
19599;SDS011;9947;57.722;12.012;2023-04-25T15:32:32;2.08;;;1.70;;
19599;SDS011;9947;57.722;12.012;2023-04-25T15:35:02;2.13;;;1.70;;
19599;SDS011;9947;57.722;12.012;2023-04-25T15:37:33;1.60;;;1.50;;
19599;SDS011;9947;57.722;12.012;2023-04-25T15:40:03;3.90;;;1.60;;
19599;SDS011;9947;57.722;12.012;2023-04-25T15:42:34;2.27;;;1.40;;
19599;SDS011;9947;57.722;12.012;2023-04-25T15:45:06;8.40;;;1.73;;
19599;SDS011;9947;57.722;12.012;2023-04-25T15:47:38;2.97;;;1.60;;
19599;SDS011;9947;57.722;12.012;2023-04-25T15:50:08;3.70;;;1.63;;
19599;SDS011;9947;57.722;12.012;2023-04-25T15:52:38;9.90;;;3.40;;
19599;SDS011;9947;57.722;12.012;2023-04-25T15:57:51;2.10;;;1.50;;
19599;SDS011;9947;57.722;12.012;2023-04-25T16:00:18;4.43;;;1.57;;
19599;SDS011;9947;57.722;12.012;2023-04-25T16:02:47;2.37;;;1.60;;
19599;SDS011;9947;57.722;12.012;2023-04-25T16:05:15;1.57;;;1.47;;
19599;SDS011;9947;57.722;12.012;2023-04-25T16:07:43;1.67;;;1.30;;
19599;SDS011;9947;57.722;12.012;2023-04-25T16:13:13;2.17;;;1.47;;
19599;SDS011;9947;57.722;12.012;2023-04-25T16:15:40;1.67;;;1.50;;
19599;SDS011;9947;57.722;12.012;2023-04-25T16:18:11;1.47;;;1.47;;
19599;SDS011;9947;57.722;12.012;2023-04-25T16:20:41;3.60;;;1.50;;
19599;SDS011;9947;57.722;12.012;2023-04-25T16:25:35;3.80;;;1.58;;
19599;SDS011;9947;57.722;12.012;2023-04-25T16:28:03;3.10;;;1.50;;
19599;SDS011;9947;57.722;12.012;2023-04-25T16:30:30;1.80;;;1.50;;
19599;SDS011;9947;57.722;12.012;2023-04-25T16:32:59;2.53;;;1.40;;
19599;SDS011;9947;57.722;12.012;2023-04-25T16:35:28;1.50;;;1.40;;
19599;SDS011;9947;57.722;12.012;2023-04-25T16:37:56;2.23;;;1.30;;
19599;SDS011;9947;57.722;12.012;2023-04-25T16:40:28;1.30;;;1.30;;